Orbital elements of CARTOSAT-2D
| Launched | 14 February 2017 |
| Flight ended | – |
| Launch site | Satish Dhawan Space Centre, India (Formerly Sriharikota Launching Range) |
| Owner | India |
| NORAD ID | 41948 |
| Date fetched |
Epoch osculation |
Inc. [°] |
Ecc. | RA asc node [hr] |
Arg Peri. [°] |
Mean anom [°] |
Mean motion [rev/day] |
Abs. mag |
| Date fetched |
Epoch osculation |
Inc. [°] |
Ecc. | RA asc node [hr] |
Arg Peri. [°] |
Mean anom [°] |
Mean motion [rev/day] |
Abs. mag |
| 2026 May 04 17:57 | 2026 May 04 11:47:23 | 97.4136 | 0.00052 | 12.3069 | 50.6242 | 309.5452 | 15.19351 | – |
| 2026 May 03 17:57 | 2026 May 03 12:04:48 | 97.4138 | 0.00052 | 12.2423 | 53.2921 | 309.5452 | 15.19351 | – |
| 2026 May 02 17:57 | 2026 May 02 12:22:13 | 97.4138 | 0.00054 | 12.1776 | 55.6326 | 309.5452 | 15.19351 | – |
| 2026 May 01 17:56 | 2026 May 01 12:39:38 | 97.4141 | 0.00055 | 12.1130 | 58.2484 | 309.5452 | 15.19351 | – |
| 2026 Apr 30 17:56 | 2026 Apr 30 11:22:11 | 97.4148 | 0.00056 | 12.0440 | 61.5677 | 309.5452 | 15.19351 | – |
| 2026 Apr 29 17:57 | 2026 Apr 29 11:39:35 | 97.4150 | 0.00056 | 11.9793 | 63.2869 | 309.5452 | 15.19351 | – |
| 2026 Apr 28 17:56 | 2026 Apr 28 11:56:58 | 97.4153 | 0.00056 | 11.9147 | 66.2738 | 309.5452 | 15.19351 | – |
| 2026 Apr 27 17:58 | 2026 Apr 27 12:14:20 | 97.4148 | 0.00056 | 11.8500 | 68.2561 | 309.5452 | 15.19351 | – |
| 2026 Apr 26 17:58 | 2026 Apr 26 12:31:42 | 97.4146 | 0.00057 | 11.7853 | 71.0234 | 309.5452 | 15.19351 | – |
| 2026 Apr 25 17:58 | 2026 Apr 25 11:14:13 | 97.4147 | 0.00058 | 11.7163 | 73.8243 | 309.5452 | 15.19351 | – |
| 2026 Apr 24 17:59 | 2026 Apr 24 11:31:33 | 97.4148 | 0.00058 | 11.6516 | 76.5740 | 309.5452 | 15.19351 | – |
| 2026 Apr 23 17:57 | 2026 Apr 23 00:44:59 | 97.4145 | 0.00058 | 11.5568 | 79.7608 | 309.5452 | 15.19351 | – |
| 2026 Apr 22 17:57 | 2026 Apr 22 04:12:00 | 97.4149 | 0.00058 | 11.5007 | 80.5598 | 309.5452 | 15.19351 | – |
| 2026 Apr 21 17:57 | 2026 Apr 20 22:09:57 | 97.4152 | 0.00058 | 11.4188 | 83.9930 | 309.5452 | 15.19351 | – |
| 2026 Apr 20 17:57 | 2026 Apr 20 14:15:43 | 97.4158 | 0.00058 | 11.3972 | 86.9658 | 309.5452 | 15.19351 | – |
| 2026 Apr 19 17:58 | 2026 Apr 19 01:54:16 | 97.4161 | 0.00057 | 11.2981 | 91.4602 | 309.5452 | 15.19351 | – |
| 2026 Apr 18 17:56 | 2026 Apr 17 21:27:02 | 97.4164 | 0.00059 | 11.2204 | 91.4997 | 309.5452 | 15.19351 | – |
| 2026 Apr 16 17:57 | 2026 Apr 15 23:36:31 | 97.4166 | 0.00061 | 11.0954 | 99.7558 | 309.5452 | 15.19351 | – |
| 2026 Apr 14 17:57 | 2026 Apr 14 11:15:10 | 97.4170 | 0.00059 | 10.9962 | 104.4673 | 309.5452 | 15.19351 | – |
| 2026 Apr 13 17:57 | 2026 Apr 13 14:42:14 | 97.4168 | 0.00060 | 10.9402 | 108.9346 | 309.5452 | 15.19351 | – |
| 2026 Apr 12 17:57 | 2026 Apr 12 11:49:56 | 97.4170 | 0.00059 | 10.8668 | 109.8553 | 309.5452 | 15.19351 | – |
| 2026 Apr 11 17:57 | 2026 Apr 10 13:59:32 | 97.4170 | 0.00059 | 10.7418 | 114.8127 | 309.5452 | 15.19351 | – |
| 2026 Apr 10 17:58 | 2026 Apr 10 07:40:10 | 97.4165 | 0.00059 | 10.7246 | 115.3404 | 309.5452 | 15.19351 | – |
| 2026 Apr 09 18:01 | 2026 Apr 08 17:43:56 | 97.4169 | 0.00058 | 10.6210 | 118.8305 | 309.5452 | 15.19351 | – |
| 2026 Apr 08 17:57 | 2026 Apr 08 12:59:24 | 97.4175 | 0.00059 | 10.6081 | 121.6051 | 309.5452 | 15.19351 | – |
| 2026 Apr 07 17:57 | 2026 Apr 07 05:22:32 | 97.4171 | 0.00056 | 10.5218 | 123.8824 | 309.5452 | 15.19351 | – |